createdAt,value
2018-06-23T00:00:58.224Z,99.90
2018-06-23T00:03:27.483Z,99.90
2018-06-23T00:05:56.751Z,99.90
2018-06-23T00:08:26.576Z,99.90
2018-06-23T00:10:55.781Z,99.90
2018-06-23T00:13:24.966Z,99.90
2018-06-23T00:15:54.969Z,99.90
2018-06-23T00:18:24.188Z,99.90
2018-06-23T00:20:53.435Z,99.90
2018-06-23T00:23:22.748Z,99.90
2018-06-23T00:25:57.364Z,99.90
2018-06-23T00:28:26.726Z,99.90
2018-06-23T00:30:55.960Z,99.90
2018-06-23T00:33:25.223Z,99.90
2018-06-23T00:35:54.600Z,99.90
2018-06-23T00:38:24.131Z,99.90
2018-06-23T00:40:53.376Z,99.90
2018-06-23T00:43:22.596Z,99.90
2018-06-23T00:45:51.780Z,99.90
2018-06-23T00:48:21.066Z,99.90
2018-06-23T00:50:50.249Z,99.90
2018-06-23T00:53:19.520Z,99.90
2018-06-23T00:55:48.771Z,99.90
2018-06-23T00:58:17.977Z,99.90
2018-06-23T01:00:47.278Z,99.90
2018-06-23T01:03:16.539Z,99.90
2018-06-23T01:05:45.737Z,99.90
2018-06-23T01:08:14.960Z,99.90
2018-06-23T01:10:44.153Z,99.90
2018-06-23T01:13:13.356Z,99.90
2018-06-23T01:15:42.539Z,99.90
2018-06-23T01:18:11.724Z,99.90
2018-06-23T01:20:40.921Z,99.90
2018-06-23T01:23:10.138Z,99.90
2018-06-23T01:25:39.439Z,99.90
2018-06-23T01:28:08.636Z,99.90
2018-06-23T01:30:37.988Z,99.90
2018-06-23T01:33:07.158Z,99.90
2018-06-23T01:35:36.471Z,99.90
2018-06-23T01:38:06.112Z,99.90
2018-06-23T01:40:35.396Z,99.90
2018-06-23T01:43:04.904Z,99.90
2018-06-23T01:45:34.113Z,99.90
2018-06-23T01:48:03.308Z,99.90
2018-06-23T01:50:32.533Z,99.90
2018-06-23T01:53:02.411Z,99.90
2018-06-23T01:55:31.601Z,99.90
2018-06-23T01:58:00.881Z,99.90
2018-06-23T02:00:30.284Z,99.90
2018-06-23T02:02:59.462Z,99.90
2018-06-23T02:05:28.719Z,99.90
2018-06-23T02:07:58.063Z,99.90
2018-06-23T02:10:27.645Z,99.90
2018-06-23T02:12:56.940Z,99.90
2018-06-23T02:15:31.436Z,99.90
2018-06-23T02:18:05.902Z,99.90
2018-06-23T02:20:40.345Z,99.90
2018-06-23T02:23:14.884Z,99.90
2018-06-23T02:25:49.879Z,99.90
2018-06-23T02:28:24.417Z,99.90
2018-06-23T02:30:58.900Z,99.90
2018-06-23T02:33:33.421Z,99.90
2018-06-23T02:36:02.827Z,99.90
2018-06-23T02:38:32.089Z,99.90
2018-06-23T02:41:01.456Z,99.90
2018-06-23T02:43:31.001Z,99.90
2018-06-23T02:46:00.234Z,99.90
2018-06-23T02:48:29.901Z,99.90
2018-06-23T02:50:59.063Z,99.90
2018-06-23T02:53:28.299Z,99.90
2018-06-23T02:55:57.470Z,99.90
2018-06-23T02:58:27.007Z,99.90
2018-06-23T03:00:56.257Z,99.90
2018-06-23T03:03:25.448Z,99.90
2018-06-23T03:05:54.636Z,99.90
2018-06-23T03:08:23.856Z,99.90
2018-06-23T03:10:53.144Z,99.90
2018-06-23T03:13:22.484Z,99.90
2018-06-23T03:15:51.824Z,99.90
2018-06-23T03:18:21.045Z,99.90
2018-06-23T03:20:50.308Z,99.90
2018-06-23T03:23:19.515Z,99.90
2018-06-23T03:25:48.727Z,99.90
2018-06-23T03:28:18.004Z,99.90
2018-06-23T03:30:47.502Z,99.90
2018-06-23T03:33:16.804Z,99.90
2018-06-23T03:35:46.038Z,99.90
2018-06-23T03:38:15.651Z,99.90
2018-06-23T03:40:44.955Z,99.90
2018-06-23T03:43:14.288Z,99.90
2018-06-23T03:45:45.341Z,99.90
2018-06-23T03:48:14.583Z,99.90
2018-06-23T03:50:43.956Z,99.90
2018-06-23T03:53:13.255Z,99.90
2018-06-23T03:58:11.316Z,99.90
2018-06-23T04:00:44.748Z,99.90
2018-06-23T04:03:13.961Z,99.90
2018-06-23T04:05:46.647Z,99.90
2018-06-23T04:08:16.420Z,99.90
2018-06-23T04:10:45.644Z,99.90
2018-06-23T04:13:14.907Z,99.90
2018-06-23T04:18:12.991Z,99.90
2018-06-23T04:20:42.313Z,99.90
2018-06-23T04:23:11.636Z,99.90
2018-06-23T04:28:09.738Z,99.90
2018-06-23T04:30:39.400Z,99.90
2018-06-23T04:33:09.091Z,99.90
2018-06-23T04:35:38.651Z,99.90
2018-06-23T04:38:08.004Z,99.90
2018-06-23T04:40:37.189Z,99.90
2018-06-23T04:43:06.739Z,99.90
2018-06-23T04:45:35.931Z,99.90
2018-06-23T04:48:05.215Z,99.90
2018-06-23T04:50:34.380Z,99.90
2018-06-23T04:53:03.702Z,99.90
2018-06-23T04:55:33.075Z,99.90
2018-06-23T04:58:02.360Z,99.90
2018-06-23T05:00:31.697Z,99.90
2018-06-23T05:03:00.905Z,99.90
2018-06-23T05:05:30.718Z,99.90
2018-06-23T05:07:59.908Z,99.90
2018-06-23T05:10:29.264Z,99.90
2018-06-23T05:12:58.465Z,99.90
2018-06-23T05:15:27.656Z,99.90
2018-06-23T05:17:56.890Z,99.90
2018-06-23T05:20:26.193Z,99.90
2018-06-23T05:22:55.499Z,99.90
2018-06-23T05:25:24.706Z,99.90
2018-06-23T05:27:54.588Z,99.90
2018-06-23T05:30:23.800Z,99.90
2018-06-23T05:32:53.554Z,99.90
2018-06-23T05:35:22.839Z,99.90
2018-06-23T05:37:52.118Z,99.90
2018-06-23T05:40:24.174Z,99.90
2018-06-23T05:42:53.432Z,99.90
2018-06-23T05:45:23.376Z,99.90
2018-06-23T05:47:52.767Z,99.90
2018-06-23T05:50:21.971Z,99.90
2018-06-23T05:52:51.155Z,99.90
2018-06-23T05:55:20.492Z,99.90
2018-06-23T05:57:49.771Z,99.90
2018-06-23T06:00:25.409Z,99.90
2018-06-23T06:02:59.012Z,99.90
2018-06-23T06:05:28.403Z,99.90
2018-06-23T06:07:57.829Z,99.90
2018-06-23T06:10:28.386Z,99.90
2018-06-23T06:12:58.477Z,99.90
2018-06-23T06:15:28.655Z,99.90
2018-06-23T06:17:59.179Z,99.90
2018-06-23T06:20:28.664Z,99.90
2018-06-23T06:22:58.540Z,99.90
2018-06-23T06:25:27.984Z,99.90
2018-06-23T06:27:57.393Z,99.90
2018-06-23T06:30:26.671Z,99.90
2018-06-23T06:32:55.827Z,99.90
2018-06-23T06:35:25.161Z,99.90
2018-06-23T06:37:54.333Z,99.90
2018-06-23T06:40:23.523Z,99.90
2018-06-23T06:42:52.725Z,99.90
2018-06-23T06:45:21.900Z,99.90
2018-06-23T06:47:51.410Z,99.90
2018-06-23T06:50:20.733Z,99.90
2018-06-23T06:52:50.282Z,99.90
2018-06-23T06:55:19.660Z,99.90
2018-06-23T06:57:49.093Z,99.90
2018-06-23T07:00:18.776Z,99.90
2018-06-23T07:02:54.086Z,99.90
2018-06-23T07:05:23.380Z,99.90
2018-06-23T07:07:52.940Z,99.90
2018-06-23T07:10:22.221Z,99.90
2018-06-23T07:12:51.869Z,99.90
2018-06-23T07:15:21.114Z,99.90
2018-06-23T07:17:50.626Z,99.90
2018-06-23T07:20:19.818Z,99.90
2018-06-23T07:22:49.035Z,99.90
2018-06-23T07:25:18.254Z,99.90
2018-06-23T07:27:47.556Z,99.90
2018-06-23T07:30:16.772Z,99.90
2018-06-23T07:32:46.782Z,99.90
2018-06-23T07:35:16.117Z,99.90
2018-06-23T07:37:45.192Z,99.90
2018-06-23T07:40:14.684Z,99.90
2018-06-23T07:45:12.774Z,99.90
2018-06-23T07:47:42.000Z,99.90
2018-06-23T07:50:11.868Z,99.90
2018-06-23T07:52:41.040Z,99.90
2018-06-23T07:55:10.539Z,99.90
2018-06-23T07:57:39.780Z,99.90
2018-06-23T08:00:09.051Z,99.90
2018-06-23T08:02:38.351Z,99.90
2018-06-23T08:05:07.609Z,99.90
2018-06-23T08:07:37.073Z,99.90
2018-06-23T08:10:06.621Z,99.90
2018-06-23T08:12:35.816Z,99.90
2018-06-23T08:15:05.702Z,99.90
2018-06-23T08:20:03.726Z,99.90
2018-06-23T08:22:33.062Z,99.90
2018-06-23T08:25:02.449Z,99.90
2018-06-23T08:27:31.672Z,99.90
2018-06-23T08:30:01.002Z,99.90
2018-06-23T08:32:30.460Z,99.90
2018-06-23T08:35:00.216Z,99.90
2018-06-23T08:37:29.607Z,99.90
2018-06-23T08:39:59.316Z,99.90
2018-06-23T08:42:31.819Z,99.90
2018-06-23T08:45:01.621Z,99.90
2018-06-23T08:47:30.841Z,99.90
2018-06-23T08:50:00.576Z,99.90
2018-06-23T08:52:29.788Z,99.90
2018-06-23T08:54:59.321Z,99.90
2018-06-23T08:57:28.525Z,99.90
2018-06-23T08:59:57.900Z,99.90
2018-06-23T09:02:27.124Z,99.90
2018-06-23T09:04:56.435Z,99.90
2018-06-23T09:07:25.711Z,99.90
2018-06-23T09:09:55.096Z,99.90
2018-06-23T09:12:24.518Z,99.90
2018-06-23T09:14:53.716Z,99.90
2018-06-23T09:17:23.000Z,99.90
2018-06-23T09:19:52.327Z,99.90
2018-06-23T09:24:50.779Z,99.90
2018-06-23T09:27:20.001Z,99.90
2018-06-23T09:29:49.361Z,99.90
2018-06-23T09:32:25.260Z,99.90
2018-06-23T09:34:54.450Z,99.90
2018-06-23T09:37:23.676Z,99.90
2018-06-23T09:39:54.023Z,99.90
2018-06-23T09:42:23.463Z,99.90
2018-06-23T09:44:52.960Z,99.90
2018-06-23T09:47:22.272Z,99.90
2018-06-23T09:49:51.479Z,99.90
2018-06-23T09:52:20.778Z,99.90
2018-06-23T09:54:49.981Z,99.90
2018-06-23T09:57:19.328Z,99.90
2018-06-23T09:59:48.725Z,99.90
2018-06-23T10:02:18.324Z,99.90
2018-06-23T10:04:47.763Z,99.90
2018-06-23T10:07:17.758Z,99.90
2018-06-23T10:09:46.943Z,99.90
2018-06-23T10:12:16.279Z,99.90
2018-06-23T10:14:45.475Z,99.90
2018-06-23T10:17:14.829Z,99.90
2018-06-23T10:19:44.045Z,99.90
2018-06-23T10:22:14.076Z,99.90
2018-06-23T10:24:48.513Z,99.90
2018-06-23T10:27:17.819Z,99.90
2018-06-23T10:29:47.020Z,99.90
2018-06-23T10:32:16.564Z,99.90
2018-06-23T10:34:46.091Z,99.90
2018-06-23T10:37:15.699Z,99.90
2018-06-23T10:39:44.954Z,99.90
2018-06-23T10:42:14.767Z,99.90
2018-06-23T10:44:44.059Z,99.90
2018-06-23T10:47:13.326Z,99.90
2018-06-23T10:49:42.730Z,99.90
2018-06-23T10:52:12.136Z,99.90
2018-06-23T10:54:41.427Z,99.90
2018-06-23T10:57:11.176Z,99.90
2018-06-23T10:59:40.623Z,99.90
2018-06-23T11:02:10.394Z,99.90
2018-06-23T11:04:39.656Z,99.90
2018-06-23T11:07:08.995Z,99.90
2018-06-23T11:09:39.215Z,99.90
2018-06-23T11:12:08.644Z,99.90
2018-06-23T11:14:38.020Z,99.90
2018-06-23T11:17:08.073Z,99.90
2018-06-23T11:19:37.551Z,99.90
2018-06-23T11:22:06.941Z,99.90
2018-06-23T11:24:36.352Z,99.90
2018-06-23T11:27:05.720Z,99.90
2018-06-23T11:29:35.862Z,99.90
2018-06-23T11:32:05.544Z,99.90
2018-06-23T11:34:35.039Z,99.90
2018-06-23T11:37:05.132Z,99.90
2018-06-23T11:39:34.513Z,99.90
2018-06-23T11:42:03.768Z,99.90
2018-06-23T11:44:33.102Z,99.90
2018-06-23T11:49:31.200Z,99.90
2018-06-23T11:52:00.711Z,99.90
2018-06-23T11:54:29.872Z,99.90
2018-06-23T11:56:59.085Z,99.90
2018-06-23T11:59:28.303Z,99.90
2018-06-23T12:01:57.524Z,99.90
2018-06-23T12:04:27.462Z,99.90
2018-06-23T12:06:56.876Z,99.90
2018-06-23T12:09:26.156Z,99.90
2018-06-23T12:11:55.456Z,99.90
2018-06-23T12:14:24.747Z,99.90
2018-06-23T12:16:53.957Z,99.90
2018-06-23T12:19:23.199Z,99.90
2018-06-23T12:21:52.973Z,99.90
2018-06-23T12:24:22.247Z,99.90
2018-06-23T12:26:51.457Z,99.90
2018-06-23T12:29:20.799Z,99.90
2018-06-23T12:31:50.088Z,99.90
2018-06-23T12:34:20.020Z,99.90
2018-06-23T12:36:49.161Z,99.90
2018-06-23T12:39:19.011Z,99.90
2018-06-23T12:41:48.222Z,99.90
2018-06-23T12:44:20.879Z,99.90
2018-06-23T12:46:50.119Z,99.90
2018-06-23T12:49:19.855Z,99.90
2018-06-23T12:51:49.314Z,99.90
2018-06-23T12:54:18.667Z,99.90
2018-06-23T12:56:47.896Z,99.90
2018-06-23T12:59:17.113Z,99.90
2018-06-23T13:01:46.508Z,99.90
2018-06-23T13:04:15.714Z,99.90
2018-06-23T13:06:45.097Z,99.90
2018-06-23T13:09:14.381Z,99.90
2018-06-23T13:11:43.700Z,99.90
2018-06-23T13:14:12.976Z,99.90
2018-06-23T13:16:42.444Z,99.90
2018-06-23T13:19:11.944Z,99.90
2018-06-23T13:24:09.874Z,99.90
2018-06-23T13:26:39.231Z,99.90
2018-06-23T13:29:08.391Z,99.90
2018-06-23T13:31:37.685Z,99.90
2018-06-23T13:34:07.062Z,99.90
2018-06-23T13:36:36.374Z,99.90
2018-06-23T13:39:07.975Z,99.90
2018-06-23T13:41:37.240Z,99.90
2018-06-23T13:44:06.692Z,99.90
2018-06-23T13:46:36.259Z,99.90
2018-06-23T13:49:06.594Z,99.90
2018-06-23T13:51:36.594Z,99.90
2018-06-23T13:54:05.895Z,99.90
2018-06-23T13:56:35.343Z,99.90
2018-06-23T13:59:04.621Z,99.90
2018-06-23T14:01:33.841Z,99.90
2018-06-23T14:04:03.116Z,99.90
2018-06-23T14:06:32.356Z,99.90
2018-06-23T14:09:01.736Z,99.70
2018-06-23T14:11:30.908Z,99.50
2018-06-23T14:14:00.343Z,99.00
2018-06-23T14:18:58.305Z,98.50
2018-06-23T14:21:27.856Z,98.80
2018-06-23T14:23:57.215Z,98.60
2018-06-23T14:26:26.699Z,98.40
2018-06-23T14:28:56.104Z,98.80
2018-06-23T14:31:25.558Z,98.80
2018-06-23T14:33:54.876Z,99.70
2018-06-23T14:36:24.273Z,99.60
2018-06-23T14:38:53.758Z,99.00
2018-06-23T14:41:22.944Z,99.90
2018-06-23T14:43:52.346Z,99.90
2018-06-23T14:46:22.127Z,99.90
2018-06-23T14:48:51.436Z,99.90
2018-06-23T14:51:20.968Z,99.90
2018-06-23T14:53:50.322Z,99.30
2018-06-23T14:56:19.660Z,99.40
2018-06-23T14:58:48.869Z,99.60
2018-06-23T15:01:18.069Z,99.00
2018-06-23T15:03:47.496Z,98.90
2018-06-23T15:06:16.821Z,98.60
2018-06-23T15:08:57.213Z,98.10
2018-06-23T15:11:37.505Z,98.10
2018-06-23T15:14:06.766Z,97.90
2018-06-23T15:16:35.959Z,96.30
2018-06-23T15:19:05.361Z,96.80
2018-06-23T15:21:34.571Z,96.60
2018-06-23T15:24:03.895Z,97.30
2018-06-23T15:26:33.426Z,97.30
2018-06-23T15:29:02.865Z,97.10
2018-06-23T15:34:01.373Z,98.30
2018-06-23T15:36:30.687Z,97.50
2018-06-23T15:38:59.929Z,98.20
2018-06-23T15:41:29.220Z,98.00
2018-06-23T15:43:58.615Z,98.20
2018-06-23T15:46:27.946Z,98.30
2018-06-23T15:48:57.119Z,97.80
2018-06-23T15:51:26.471Z,97.50
2018-06-23T15:53:55.747Z,97.70
2018-06-23T15:56:25.066Z,97.40
2018-06-23T15:58:54.516Z,96.10
2018-06-23T16:01:24.158Z,96.00
2018-06-23T16:03:53.280Z,95.30
2018-06-23T16:06:22.683Z,95.90
2018-06-23T16:08:52.027Z,95.90
2018-06-23T16:11:21.202Z,96.00
2018-06-23T16:13:50.447Z,95.10
2018-06-23T16:16:19.864Z,96.00
2018-06-23T16:18:49.206Z,95.20
2018-06-23T16:21:18.435Z,95.70
2018-06-23T16:23:47.809Z,95.80
2018-06-23T16:26:17.200Z,96.20
2018-06-23T16:28:46.407Z,96.70
2018-06-23T16:31:15.639Z,96.70
2018-06-23T16:33:44.907Z,97.10
2018-06-23T16:36:14.123Z,97.20
2018-06-23T16:38:43.305Z,95.40
2018-06-23T16:41:12.624Z,95.80
2018-06-23T16:43:42.128Z,96.70
2018-06-23T16:46:17.511Z,97.10
2018-06-23T16:48:46.707Z,96.40
2018-06-23T16:56:13.576Z,96.30
2018-06-23T16:58:43.764Z,96.70
2018-06-23T17:01:12.963Z,96.40
2018-06-23T17:03:42.684Z,96.70
2018-06-23T17:06:11.982Z,97.00
2018-06-23T17:08:41.347Z,96.70
2018-06-23T17:11:11.025Z,96.60
2018-06-23T17:13:40.332Z,97.20
2018-06-23T17:16:09.711Z,96.60
2018-06-23T17:18:39.577Z,96.70
2018-06-23T17:21:09.088Z,97.30
2018-06-23T17:23:38.387Z,97.10
2018-06-23T17:26:07.729Z,97.00
2018-06-23T17:28:36.927Z,97.40
2018-06-23T17:31:06.267Z,96.50
2018-06-23T17:33:35.483Z,96.40
2018-06-23T17:36:04.977Z,96.40
2018-06-23T17:38:35.346Z,97.00
2018-06-23T17:41:04.619Z,97.20
2018-06-23T17:43:34.009Z,96.80
2018-06-23T17:46:03.575Z,97.00
2018-06-23T17:51:01.576Z,97.40
2018-06-23T17:53:30.976Z,97.10
2018-06-23T17:56:00.144Z,96.90
2018-06-23T17:58:29.469Z,97.00
2018-06-23T18:00:58.784Z,97.10
2018-06-23T18:03:27.996Z,97.40
2018-06-23T18:05:57.275Z,97.50
2018-06-23T18:08:26.505Z,97.30
2018-06-23T18:10:55.821Z,97.30
2018-06-23T18:13:25.197Z,97.80
2018-06-23T18:15:54.449Z,98.50
2018-06-23T18:18:23.645Z,98.10
2018-06-23T18:20:52.832Z,98.50
2018-06-23T18:23:22.258Z,98.60
2018-06-23T18:28:20.347Z,98.60
2018-06-23T18:30:49.851Z,98.40
2018-06-23T18:33:19.142Z,98.70
2018-06-23T18:35:48.812Z,98.60
2018-06-23T18:38:18.022Z,98.80
2018-06-23T18:40:47.566Z,98.70
2018-06-23T18:43:16.860Z,98.90
2018-06-23T18:45:46.091Z,99.20
2018-06-23T18:48:15.299Z,99.20
2018-06-23T18:50:44.551Z,99.10
2018-06-23T18:53:13.904Z,99.30
2018-06-23T18:55:43.149Z,99.40
2018-06-23T18:58:12.661Z,99.40
2018-06-23T19:03:11.214Z,99.60
2018-06-23T19:05:40.598Z,99.90
2018-06-23T19:08:09.868Z,99.90
2018-06-23T19:15:37.208Z,99.90
2018-06-23T19:18:06.544Z,99.90
2018-06-23T19:20:35.732Z,99.90
2018-06-23T19:23:04.965Z,99.90
2018-06-23T19:25:40.711Z,99.90
2018-06-23T19:28:09.945Z,99.90
2018-06-23T19:30:39.350Z,99.90
2018-06-23T19:33:09.700Z,99.90
2018-06-23T19:35:38.976Z,99.90
2018-06-23T19:38:08.136Z,99.90
2018-06-23T19:40:37.342Z,99.90
2018-06-23T19:43:06.711Z,99.90
2018-06-23T19:45:36.151Z,99.90
2018-06-23T19:48:05.346Z,99.90
2018-06-23T19:50:34.567Z,99.90
2018-06-23T19:53:03.780Z,99.90
2018-06-23T19:55:32.972Z,99.90
2018-06-23T19:58:02.665Z,99.90
2018-06-23T20:00:31.860Z,99.90
2018-06-23T20:03:01.197Z,99.90
2018-06-23T20:05:30.529Z,99.90
2018-06-23T20:10:28.630Z,99.90
2018-06-23T20:12:58.531Z,99.90
2018-06-23T20:15:27.891Z,99.90
2018-06-23T20:17:57.520Z,99.90
2018-06-23T20:20:26.730Z,99.90
2018-06-23T20:22:56.522Z,99.90
2018-06-23T20:25:25.950Z,99.90
2018-06-23T20:30:26.077Z,99.90
2018-06-23T20:32:55.308Z,99.90
2018-06-23T20:35:24.645Z,99.90
2018-06-23T20:37:53.853Z,99.90
2018-06-23T20:40:23.243Z,99.90
2018-06-23T20:42:52.548Z,99.90
2018-06-23T20:45:21.779Z,99.90
2018-06-23T20:47:50.959Z,99.90
2018-06-23T20:50:20.104Z,99.90
2018-06-23T20:52:49.583Z,99.90
2018-06-23T20:55:19.224Z,99.90
2018-06-23T20:57:48.446Z,99.90
2018-06-23T21:00:17.777Z,99.90
2018-06-23T21:02:47.030Z,99.90
2018-06-23T21:05:16.339Z,99.90
2018-06-23T21:07:45.568Z,99.90
2018-06-23T21:10:26.259Z,99.90
2018-06-23T21:15:24.164Z,99.90
2018-06-23T21:17:53.341Z,99.90
2018-06-23T21:20:27.888Z,99.90
2018-06-23T21:22:57.095Z,99.90
2018-06-23T21:25:26.350Z,99.90
2018-06-23T21:27:55.776Z,99.90
2018-06-23T21:30:25.155Z,99.90
2018-06-23T21:32:54.858Z,99.90
2018-06-23T21:35:24.988Z,99.90
2018-06-23T21:40:23.555Z,99.90
2018-06-23T21:42:52.728Z,99.90
2018-06-23T21:45:22.057Z,99.90
2018-06-23T21:47:51.471Z,99.90
2018-06-23T21:50:21.239Z,99.90
2018-06-23T21:52:50.469Z,99.90
2018-06-23T21:55:19.766Z,99.90
2018-06-23T21:57:48.971Z,99.90
2018-06-23T22:00:31.603Z,99.90
2018-06-23T22:03:03.131Z,99.90
2018-06-23T22:05:32.720Z,99.90
2018-06-23T22:08:02.068Z,99.90
2018-06-23T22:10:31.376Z,99.90
2018-06-23T22:13:00.737Z,99.90
2018-06-23T22:15:29.923Z,99.90
2018-06-23T22:17:59.163Z,99.90
2018-06-23T22:20:28.355Z,99.90
2018-06-23T22:22:57.557Z,99.90
2018-06-23T22:25:26.774Z,99.90
2018-06-23T22:27:56.021Z,99.90
2018-06-23T22:30:25.200Z,99.90
2018-06-23T22:32:54.520Z,99.90
2018-06-23T22:35:23.701Z,99.90
2018-06-23T22:37:52.957Z,99.90
2018-06-23T22:40:22.224Z,99.90
2018-06-23T22:42:51.418Z,99.90
2018-06-23T22:45:20.616Z,99.90
2018-06-23T22:47:49.814Z,99.90
2018-06-23T22:50:19.228Z,99.90
2018-06-23T22:52:48.413Z,99.90
2018-06-23T22:55:17.640Z,99.90
2018-06-23T23:00:15.608Z,99.90
2018-06-23T23:02:44.922Z,99.90
2018-06-23T23:07:42.927Z,99.90
2018-06-23T23:10:12.415Z,99.90
2018-06-23T23:12:41.609Z,99.90
2018-06-23T23:15:11.184Z,99.90
2018-06-23T23:17:40.460Z,99.90
2018-06-23T23:20:10.162Z,99.90
2018-06-23T23:22:39.384Z,99.90
2018-06-23T23:25:08.611Z,99.90
2018-06-23T23:27:37.809Z,99.90
2018-06-23T23:30:07.732Z,99.90
2018-06-23T23:32:36.912Z,99.90
2018-06-23T23:35:06.215Z,99.90
2018-06-23T23:37:35.453Z,99.90
2018-06-23T23:40:05.494Z,99.90
2018-06-23T23:42:34.815Z,99.90
2018-06-23T23:45:04.332Z,99.90
2018-06-23T23:47:33.538Z,99.90
2018-06-23T23:50:02.892Z,99.90
2018-06-23T23:52:32.065Z,99.90
2018-06-23T23:55:01.283Z,99.90
2018-06-23T23:57:30.623Z,99.90
2018-06-23T23:59:59.820Z,99.90
